createdAt,value
2023-03-24T00:01:54.147Z,13.50
2023-03-24T00:06:56.802Z,13.50
2023-03-24T00:12:00.988Z,13.50
2023-03-24T00:17:03.807Z,13.50
2023-03-24T00:22:06.924Z,13.50
2023-03-24T00:27:13.652Z,13.50
2023-03-24T00:32:16.705Z,13.50
2023-03-24T00:37:19.374Z,13.50
2023-03-24T00:42:24.602Z,13.50
2023-03-24T00:47:27.370Z,13.50
2023-03-24T00:52:33.978Z,13.60
2023-03-24T00:57:37.984Z,13.60
2023-03-24T01:02:40.972Z,13.70
2023-03-24T01:07:43.682Z,13.70
2023-03-24T01:12:47.656Z,13.60
2023-03-24T01:17:50.401Z,13.60
2023-03-24T01:22:53.204Z,13.60
2023-03-24T01:27:58.063Z,13.70
2023-03-24T01:33:01.009Z,13.60
2023-03-24T01:38:06.949Z,13.50
2023-03-24T01:43:19.875Z,13.70
2023-03-24T01:48:25.945Z,13.80
2023-03-24T01:53:31.080Z,13.70
2023-03-24T01:58:38.167Z,13.70
2023-03-24T02:03:42.154Z,13.80
2023-03-24T02:08:49.871Z,13.80
2023-03-24T02:13:53.853Z,13.90
2023-03-24T02:19:19.106Z,13.90
2023-03-24T02:25:05.143Z,13.90
2023-03-24T02:30:32.604Z,13.80
2023-03-24T02:36:12.907Z,13.90
2023-03-24T02:41:21.778Z,13.90
2023-03-24T02:46:26.987Z,13.80
2023-03-24T02:51:35.519Z,13.70
2023-03-24T02:56:45.140Z,13.70
2023-03-24T03:01:54.853Z,13.60
2023-03-24T03:06:59.766Z,13.50
2023-03-24T03:12:05.833Z,13.50
2023-03-24T03:17:14.511Z,13.40
2023-03-24T03:22:22.823Z,13.50
2023-03-24T03:27:31.451Z,13.60
2023-03-24T03:32:39.164Z,13.70
2023-03-24T03:37:48.679Z,13.70
2023-03-24T03:42:53.082Z,13.60
2023-03-24T03:47:55.976Z,13.60
2023-03-24T03:52:58.745Z,13.50
2023-03-24T03:58:03.409Z,13.50
2023-03-24T04:03:18.433Z,13.50
2023-03-24T04:08:26.810Z,13.60
2023-03-24T04:13:38.643Z,13.60
2023-03-24T04:19:04.955Z,13.50
2023-03-24T04:24:19.536Z,13.50
2023-03-24T04:57:34.750Z,13.60
2023-03-24T05:02:35.799Z,13.50
2023-03-24T05:07:38.553Z,13.50
2023-03-24T05:12:42.507Z,13.40
2023-03-24T05:17:45.403Z,13.50
2023-03-24T05:22:49.662Z,13.50
2023-03-24T05:27:53.764Z,13.50
2023-03-24T05:32:56.454Z,13.50
2023-03-24T05:37:59.215Z,13.50
2023-03-24T05:43:03.247Z,13.60
2023-03-24T05:48:06.517Z,13.70
2023-03-24T05:53:09.231Z,13.70
2023-03-24T05:58:15.684Z,13.70
2023-03-24T06:03:18.562Z,13.80
2023-03-24T06:08:21.374Z,13.80
2023-03-24T06:13:25.380Z,13.80
2023-03-24T06:18:30.504Z,13.60
2023-03-24T06:23:33.862Z,13.40
2023-03-24T06:28:39.660Z,13.50
2023-03-24T06:33:42.470Z,13.60
2023-03-24T06:38:45.964Z,13.70
2023-03-24T06:43:50.052Z,13.70
2023-03-24T06:48:52.745Z,13.80
2023-03-24T06:53:55.492Z,14.10
2023-03-24T06:58:59.533Z,14.20
2023-03-24T07:04:02.531Z,14.40
2023-03-24T07:09:05.506Z,14.50
2023-03-24T07:14:09.589Z,14.60
2023-03-24T07:19:12.314Z,14.70
2023-03-24T07:24:14.960Z,14.80
2023-03-24T07:29:18.962Z,15.00
2023-03-24T07:34:22.113Z,15.10
2023-03-24T07:39:24.769Z,15.30
2023-03-24T07:44:28.768Z,15.50
2023-03-24T07:49:31.433Z,15.50
2023-03-24T07:54:34.827Z,15.60
2023-03-24T07:59:39.489Z,15.70
2023-03-24T08:04:42.867Z,16.00
2023-03-24T08:09:45.605Z,16.30
2023-03-24T08:14:49.553Z,16.70
2023-03-24T08:20:00.044Z,17.00
2023-03-24T08:25:04.821Z,17.10
2023-03-24T08:30:11.491Z,17.40
2023-03-24T08:35:16.350Z,17.50
2023-03-24T08:40:23.393Z,17.60
2023-03-24T08:45:30.711Z,17.60
2023-03-24T08:50:36.522Z,17.60
2023-03-24T08:55:43.730Z,17.50
2023-03-24T09:00:50.082Z,17.40
2023-03-24T09:05:57.161Z,17.30
2023-03-24T09:11:00.762Z,17.60
2023-03-24T09:16:06.280Z,17.60
2023-03-24T09:21:09.807Z,17.70
2023-03-24T09:26:12.858Z,17.60
2023-03-24T09:31:17.151Z,17.50
2023-03-24T09:36:21.663Z,17.60
2023-03-24T09:41:29.552Z,18.10
2023-03-24T09:46:41.497Z,18.60
2023-03-24T09:51:46.384Z,18.60
2023-03-24T09:56:52.241Z,18.20
2023-03-24T10:01:58.691Z,18.50
2023-03-24T10:07:09.128Z,19.70
2023-03-24T10:12:20.379Z,20.60
2023-03-24T10:17:35.626Z,19.90
2023-03-24T10:22:46.474Z,19.10
2023-03-24T10:27:55.349Z,18.80
2023-03-24T10:33:04.303Z,18.50
2023-03-24T10:38:16.809Z,18.70
2023-03-24T10:43:21.322Z,18.90
2023-03-24T10:48:44.214Z,19.20
2023-03-24T10:53:48.814Z,19.90
2023-03-24T10:58:51.907Z,20.40
2023-03-24T11:04:01.378Z,20.80
2023-03-24T11:09:11.912Z,21.70
2023-03-24T11:14:25.852Z,20.90
2023-03-24T11:19:32.437Z,19.90
2023-03-24T11:24:38.896Z,19.50
2023-03-24T11:29:42.615Z,19.30
2023-03-24T11:34:49.955Z,19.00
2023-03-24T11:40:17.104Z,18.90
2023-03-24T11:45:40.293Z,19.90
2023-03-24T11:50:46.082Z,20.80
2023-03-24T11:55:54.919Z,21.40
2023-03-24T12:01:02.551Z,20.20
2023-03-24T12:06:21.163Z,20.60
2023-03-24T12:11:34.449Z,21.00
2023-03-24T12:16:51.947Z,21.20
2023-03-24T12:22:04.701Z,21.80
2023-03-24T12:27:19.666Z,22.90
2023-03-24T12:32:50.067Z,22.50
2023-03-24T12:38:08.759Z,22.10
2023-03-24T12:43:27.789Z,20.10
2023-03-24T12:48:52.206Z,19.10
2023-03-24T12:54:10.003Z,18.60
2023-03-24T12:59:19.520Z,18.60
2023-03-24T13:04:28.030Z,18.30
2023-03-24T13:09:44.859Z,18.30
2023-03-24T13:14:56.258Z,18.40
2023-03-24T13:20:00.950Z,18.30
2023-03-24T13:25:09.190Z,18.20
2023-03-24T13:30:31.607Z,18.30
2023-03-24T13:35:53.440Z,18.60
2023-03-24T13:40:58.160Z,19.00
2023-03-24T13:46:33.422Z,19.20
2023-03-24T13:52:12.298Z,19.90
2023-03-24T13:57:34.357Z,19.40
2023-03-24T14:03:13.316Z,18.60
2023-03-24T14:08:20.161Z,18.00
2023-03-24T14:13:38.918Z,17.10
2023-03-24T14:18:43.477Z,13.90
2023-03-24T14:23:49.173Z,12.60
2023-03-24T14:28:54.310Z,11.90
2023-03-24T14:34:05.965Z,11.90
2023-03-24T14:39:13.610Z,11.60
2023-03-24T14:44:53.542Z,11.80
2023-03-24T14:49:58.313Z,12.20
2023-03-24T14:55:04.451Z,12.10
2023-03-24T15:00:15.553Z,11.90
2023-03-24T15:05:23.032Z,12.00
2023-03-24T15:10:26.294Z,12.40
2023-03-24T15:15:30.506Z,12.80
2023-03-24T15:20:35.818Z,13.00
2023-03-24T15:25:42.422Z,13.10
2023-03-24T15:30:46.980Z,13.30
2023-03-24T15:35:58.416Z,13.30
2023-03-24T15:41:03.218Z,13.30
2023-03-24T15:46:12.437Z,13.20
2023-03-24T15:51:15.579Z,13.10
2023-03-24T15:56:25.224Z,13.30
2023-03-24T16:01:36.482Z,13.50
2023-03-24T16:06:43.387Z,13.70
2023-03-24T16:11:46.118Z,13.40
2023-03-24T16:16:50.415Z,13.40
2023-03-24T16:21:54.666Z,13.30
2023-03-24T16:26:57.462Z,13.30
2023-03-24T16:32:03.029Z,13.20
2023-03-24T16:37:05.981Z,13.20
2023-03-24T16:42:08.741Z,13.10
2023-03-24T16:47:13.591Z,13.10
2023-03-24T16:52:17.527Z,12.90
2023-03-24T16:57:21.013Z,12.70
2023-03-24T17:02:25.064Z,12.70
2023-03-24T17:07:27.753Z,12.60
2023-03-24T17:12:31.334Z,12.80
2023-03-24T17:17:35.514Z,12.60
2023-03-24T17:22:38.590Z,12.30
2023-03-24T17:27:41.414Z,11.90
2023-03-24T17:32:45.815Z,11.70
2023-03-24T17:37:48.903Z,11.70
2023-03-24T17:42:51.722Z,11.70
2023-03-24T17:47:56.170Z,11.40
2023-03-24T17:53:00.579Z,11.50
2023-03-24T17:58:03.345Z,11.70
2023-03-24T18:03:09.829Z,11.70
2023-03-24T18:08:13.290Z,11.80
2023-03-24T18:13:16.135Z,11.90
2023-03-24T18:18:20.510Z,11.80
2023-03-24T18:23:23.272Z,12.00
2023-03-24T18:28:26.022Z,12.00
2023-03-24T18:33:31.359Z,12.00
2023-03-24T18:38:34.027Z,12.10
2023-03-24T18:43:39.433Z,12.00
2023-03-24T18:48:44.579Z,12.00
2023-03-24T18:53:47.654Z,11.90
2023-03-24T18:58:51.989Z,11.70
2023-03-24T19:03:56.230Z,11.60
2023-03-24T19:09:00.168Z,11.60
2023-03-24T19:14:02.921Z,11.60
2023-03-24T19:19:07.309Z,11.40
2023-03-24T19:24:11.028Z,11.00
2023-03-24T19:29:13.979Z,10.80
2023-03-24T19:34:21.076Z,11.00
2023-03-24T19:39:26.884Z,10.80
2023-03-24T19:44:30.520Z,10.70
2023-03-24T19:49:34.696Z,10.80
2023-03-24T19:54:38.934Z,10.90
2023-03-24T19:59:41.803Z,10.80
2023-03-24T20:04:47.245Z,11.00
2023-03-24T20:09:50.298Z,10.80
2023-03-24T20:14:52.957Z,10.90
2023-03-24T20:19:57.002Z,10.80
2023-03-24T20:25:05.326Z,10.90
2023-03-24T20:30:11.952Z,10.80
2023-03-24T22:43:27.912Z,10.50
2023-03-24T22:48:32.767Z,11.10
2023-03-24T22:53:40.489Z,11.50
2023-03-24T22:58:49.942Z,11.80
2023-03-24T23:03:59.587Z,11.90
2023-03-24T23:09:13.237Z,12.00
2023-03-24T23:14:19.387Z,12.00
2023-03-24T23:19:26.462Z,12.00
2023-03-24T23:24:43.473Z,12.00
2023-03-24T23:29:57.460Z,11.90
2023-03-24T23:35:05.907Z,11.90
2023-03-24T23:40:13.109Z,11.90
2023-03-24T23:45:27.564Z,11.70
2023-03-24T23:50:30.753Z,11.70
2023-03-24T23:55:47.659Z,11.60
